JBU381 KBOS-KRIC
Flight info
| Callsign | JBU381 |
|---|---|
| Flight time | 1h 19m |
| Altitude | 34000 |
| Route | SSOXS7 SSOXS Q167 ZJAAY ARICE JAMIE MODEL HANKC CFDTG |
| Aircraft | A320/M-SDE3FGHIRWY/LB1 |
Departure
| Time | 2026-05-06 12:08 |
|---|---|
| Airport | Boston Logan International Airport (KBOS) |
Arrival
| Time | 2026-05-06 13:27 |
|---|---|
| Airport | Richmond International Airport (KRIC) |
| Time | Latitude | Longitude | Altitude | Speed | Heading |
|---|---|---|---|---|---|
| 2026-05-06 11:54 | 42.36944 | -71.01733 | 26 ft | 0 kts | 335° |
| 2026-05-06 12:01 | 42.36936 | -71.01728 | 30 ft | 2 kts | 335° |
| 2026-05-06 12:01 | 42.36922 | -71.01719 | 31 ft | 2 kts | 335° |
| 2026-05-06 12:01 | 42.36907 | -71.01710 | 28 ft | 2 kts | 335° |
| 2026-05-06 12:02 | 42.36893 | -71.01701 | 26 ft | 2 kts | 335° |
| 2026-05-06 12:02 | 42.36878 | -71.01692 | 28 ft | 2 kts | 4° |
| 2026-05-06 12:02 | 42.36868 | -71.01694 | 25 ft | 0 kts | 33° |
| 2026-05-06 12:03 | 42.36900 | -71.01662 | 27 ft | 12 kts | 36° |
| 2026-05-06 12:04 | 42.36966 | -71.01600 | 27 ft | 9 kts | 33° |
| 2026-05-06 12:04 | 42.37025 | -71.01550 | 27 ft | 11 kts | 32° |
| 2026-05-06 12:04 | 42.37014 | -71.01448 | 28 ft | 13 kts | 159° |
| 2026-05-06 12:04 | 42.36945 | -71.01351 | 26 ft | 17 kts | 138° |
| 2026-05-06 12:05 | 42.36898 | -71.01208 | 25 ft | 23 kts | 57° |
| 2026-05-06 12:05 | 42.37052 | -71.01064 | 24 ft | 29 kts | 27° |
| 2026-05-06 12:05 | 42.37232 | -71.00946 | 22 ft | 29 kts | 25° |
| 2026-05-06 12:05 | 42.37414 | -71.00846 | 22 ft | 29 kts | 20° |
| 2026-05-06 12:06 | 42.37608 | -71.00754 | 25 ft | 29 kts | 20° |
| 2026-05-06 12:06 | 42.37772 | -71.00677 | 29 ft | 18 kts | 19° |
| 2026-05-06 12:06 | 42.37831 | -71.00648 | 29 ft | 9 kts | 20° |
| 2026-05-06 12:06 | 42.37844 | -71.00642 | 28 ft | 0 kts | 21° |
| 2026-05-06 12:07 | 42.37868 | -71.00605 | 28 ft | 13 kts | 57° |
| 2026-05-06 12:07 | 42.37833 | -71.00503 | 27 ft | 15 kts | 134° |
| 2026-05-06 12:07 | 42.37703 | -71.00518 | 27 ft | 37 kts | 201° |
| 2026-05-06 12:07 | 42.37243 | -71.00741 | 20 ft | 100 kts | 199° |
| 2026-05-06 12:08 | 42.36442 | -71.01137 | 50 ft | 142 kts | 200° |
| 2026-05-06 12:08 | 42.35511 | -71.01616 | 627 ft | 143 kts | 200° |
| 2026-05-06 12:08 | 42.34522 | -71.01728 | 1291 ft | 147 kts | 175° |
| 2026-05-06 12:08 | 42.33583 | -71.01041 | 1966 ft | 166 kts | 147° |
| 2026-05-06 12:09 | 42.32842 | -70.99799 | 2605 ft | 172 kts | 142° |
| 2026-05-06 12:09 | 42.32063 | -70.98463 | 2953 ft | 193 kts | 141° |
| 2026-05-06 12:09 | 42.31339 | -70.96755 | 3210 ft | 233 kts | 115° |
| 2026-05-06 12:09 | 42.31261 | -70.94407 | 3536 ft | 271 kts | 85° |
| 2026-05-06 12:10 | 42.31650 | -70.91790 | 3909 ft | 295 kts | 83° |
| 2026-05-06 12:10 | 42.32062 | -70.89025 | 4650 ft | 303 kts | 84° |
| 2026-05-06 12:10 | 42.32475 | -70.86233 | 5577 ft | 303 kts | 84° |
| 2026-05-06 12:10 | 42.32859 | -70.83430 | 6504 ft | 303 kts | 89° |
| 2026-05-06 12:11 | 42.32903 | -70.80592 | 7284 ft | 301 kts | 103° |
| 2026-05-06 12:11 | 42.32493 | -70.77842 | 8034 ft | 299 kts | 113° |
| 2026-05-06 12:11 | 42.31903 | -70.75135 | 8920 ft | 300 kts | 119° |
| 2026-05-06 12:11 | 42.31076 | -70.72552 | 9661 ft | 299 kts | 127° |
| 2026-05-06 12:12 | 42.29861 | -70.70344 | 10321 ft | 290 kts | 144° |
| 2026-05-06 12:12 | 42.28306 | -70.68566 | 10661 ft | 301 kts | 154° |
| 2026-05-06 12:12 | 42.26436 | -70.67150 | 10812 ft | 315 kts | 165° |
| 2026-05-06 12:12 | 42.24326 | -70.66135 | 11056 ft | 329 kts | 168° |
| 2026-05-06 12:13 | 42.22130 | -70.65124 | 11613 ft | 336 kts | 168° |
| 2026-05-06 12:13 | 42.19907 | -70.64096 | 12251 ft | 340 kts | 168° |
| 2026-05-06 12:13 | 42.17650 | -70.63054 | 12915 ft | 344 kts | 169° |
| 2026-05-06 12:13 | 42.15343 | -70.62315 | 13527 ft | 340 kts | 179° |
| 2026-05-06 12:14 | 42.13022 | -70.62208 | 14104 ft | 336 kts | 189° |
| 2026-05-06 12:14 | 42.10699 | -70.62744 | 14641 ft | 335 kts | 200° |
| 2026-05-06 12:14 | 42.08501 | -70.63715 | 15153 ft | 338 kts | 202° |
| 2026-05-06 12:14 | 42.06229 | -70.64732 | 15668 ft | 343 kts | 202° |
| 2026-05-06 12:15 | 42.03943 | -70.65743 | 16171 ft | 347 kts | 202° |
| 2026-05-06 12:15 | 42.01634 | -70.66758 | 16695 ft | 352 kts | 202° |
| 2026-05-06 12:15 | 41.99295 | -70.67781 | 17245 ft | 357 kts | 202° |
| 2026-05-06 12:15 | 41.96915 | -70.68821 | 17758 ft | 361 kts | 202° |
| 2026-05-06 12:16 | 41.94509 | -70.69874 | 18254 ft | 367 kts | 202° |
| 2026-05-06 12:16 | 41.92091 | -70.70935 | 18716 ft | 372 kts | 202° |
| 2026-05-06 12:16 | 41.89623 | -70.72020 | 19227 ft | 376 kts | 202° |
| 2026-05-06 12:16 | 41.87121 | -70.73121 | 19759 ft | 379 kts | 202° |
| 2026-05-06 12:17 | 41.84610 | -70.74235 | 20285 ft | 382 kts | 204° |
| 2026-05-06 12:17 | 41.82194 | -70.75728 | 20788 ft | 381 kts | 212° |
| 2026-05-06 12:17 | 41.79884 | -70.77465 | 21271 ft | 384 kts | 213° |
| 2026-05-06 12:17 | 41.77542 | -70.79227 | 21704 ft | 387 kts | 213° |
| 2026-05-06 12:18 | 41.75188 | -70.80998 | 22146 ft | 391 kts | 213° |
| 2026-05-06 12:18 | 41.72804 | -70.82792 | 22572 ft | 394 kts | 213° |
| 2026-05-06 12:18 | 41.70413 | -70.84590 | 23012 ft | 397 kts | 213° |
| 2026-05-06 12:18 | 41.67991 | -70.86405 | 23447 ft | 399 kts | 213° |
| 2026-05-06 12:19 | 41.65560 | -70.88223 | 23834 ft | 402 kts | 213° |
| 2026-05-06 12:19 | 41.63121 | -70.90051 | 24208 ft | 404 kts | 213° |
| 2026-05-06 12:19 | 41.60660 | -70.91892 | 24563 ft | 405 kts | 213° |
| 2026-05-06 12:19 | 41.58197 | -70.93731 | 24895 ft | 408 kts | 213° |
| 2026-05-06 12:20 | 41.55843 | -70.95834 | 25227 ft | 406 kts | 222° |
| 2026-05-06 12:20 | 41.53800 | -70.98426 | 25574 ft | 404 kts | 231° |
| 2026-05-06 12:20 | 41.52109 | -71.01405 | 25906 ft | 404 kts | 238° |
| 2026-05-06 12:20 | 41.50545 | -71.04535 | 26253 ft | 406 kts | 238° |
| 2026-05-06 12:21 | 41.48980 | -71.07666 | 26606 ft | 407 kts | 238° |
| 2026-05-06 12:21 | 41.47404 | -71.10813 | 26933 ft | 409 kts | 238° |
| 2026-05-06 12:21 | 41.45814 | -71.13982 | 27268 ft | 411 kts | 238° |
| 2026-05-06 12:21 | 41.44222 | -71.17150 | 27569 ft | 413 kts | 238° |
| 2026-05-06 12:22 | 41.42614 | -71.20349 | 27871 ft | 416 kts | 238° |
| 2026-05-06 12:22 | 41.41004 | -71.23547 | 28237 ft | 416 kts | 238° |
| 2026-05-06 12:22 | 41.39391 | -71.26744 | 28726 ft | 414 kts | 238° |
| 2026-05-06 12:22 | 41.37791 | -71.29915 | 29205 ft | 413 kts | 238° |
| 2026-05-06 12:23 | 41.36191 | -71.33088 | 29689 ft | 411 kts | 238° |
| 2026-05-06 12:23 | 41.34605 | -71.36237 | 30148 ft | 410 kts | 238° |
| 2026-05-06 12:23 | 41.33016 | -71.39390 | 30565 ft | 408 kts | 238° |
| 2026-05-06 12:23 | 41.31439 | -71.42515 | 30975 ft | 407 kts | 239° |
| 2026-05-06 12:24 | 41.30388 | -71.44594 | 31245 ft | 407 kts | 239° |
| 2026-05-06 12:24 | 41.28810 | -71.47699 | 31646 ft | 406 kts | 239° |
| 2026-05-06 12:24 | 41.26697 | -71.51848 | 32202 ft | 404 kts | 239° |
| 2026-05-06 12:24 | 41.25142 | -71.54901 | 32603 ft | 403 kts | 239° |
| 2026-05-06 12:25 | 41.24084 | -71.56981 | 32893 ft | 402 kts | 239° |
| 2026-05-06 12:25 | 41.22529 | -71.60048 | 33326 ft | 400 kts | 240° |
| 2026-05-06 12:25 | 41.20972 | -71.63114 | 33771 ft | 399 kts | 240° |
| 2026-05-06 12:25 | 41.19423 | -71.66160 | 34019 ft | 398 kts | 240° |
| 2026-05-06 12:26 | 41.16291 | -71.72315 | 34071 ft | 407 kts | 240° |
| 2026-05-06 12:26 | 41.13099 | -71.78562 | 34060 ft | 409 kts | 240° |
| 2026-05-06 12:27 | 41.09926 | -71.84790 | 34065 ft | 410 kts | 240° |
| 2026-05-06 12:27 | 41.06734 | -71.91064 | 34067 ft | 411 kts | 240° |
| 2026-05-06 12:28 | 41.03576 | -71.97351 | 34064 ft | 407 kts | 245° |
| 2026-05-06 12:28 | 41.01138 | -72.04068 | 34066 ft | 404 kts | 249° |
| 2026-05-06 12:29 | 40.98762 | -72.10818 | 34050 ft | 404 kts | 249° |
| 2026-05-06 12:29 | 40.96381 | -72.17566 | 34054 ft | 405 kts | 249° |
| 2026-05-06 12:30 | 40.93990 | -72.24321 | 34055 ft | 405 kts | 249° |
| 2026-05-06 12:30 | 40.91366 | -72.30929 | 34074 ft | 410 kts | 240° |
| 2026-05-06 12:31 | 40.87477 | -72.36541 | 34081 ft | 416 kts | 231° |
| 2026-05-06 12:31 | 40.83361 | -72.41906 | 34062 ft | 415 kts | 231° |
| 2026-05-06 12:32 | 40.79173 | -72.47174 | 34066 ft | 419 kts | 226° |
| 2026-05-06 12:32 | 40.74691 | -72.52028 | 34067 ft | 420 kts | 226° |
| 2026-05-06 12:33 | 40.70166 | -72.56916 | 34065 ft | 420 kts | 226° |
| 2026-05-06 12:33 | 40.65706 | -72.61862 | 34067 ft | 418 kts | 228° |
| 2026-05-06 12:34 | 40.61357 | -72.66921 | 34074 ft | 417 kts | 229° |
| 2026-05-06 12:34 | 40.57018 | -72.71971 | 34066 ft | 416 kts | 229° |
| 2026-05-06 12:35 | 40.52668 | -72.76977 | 34066 ft | 416 kts | 228° |
| 2026-05-06 12:35 | 40.48291 | -72.81968 | 34061 ft | 417 kts | 228° |
| 2026-05-06 12:36 | 40.43912 | -72.86960 | 34041 ft | 417 kts | 228° |
| 2026-05-06 12:36 | 40.39514 | -72.91970 | 34049 ft | 418 kts | 228° |
| 2026-05-06 12:37 | 40.35123 | -72.96976 | 34053 ft | 418 kts | 229° |
| 2026-05-06 12:37 | 40.30733 | -73.01969 | 34066 ft | 418 kts | 229° |
| 2026-05-06 12:38 | 40.26349 | -73.06940 | 34041 ft | 418 kts | 229° |
| 2026-05-06 12:38 | 40.21953 | -73.11913 | 34047 ft | 418 kts | 229° |
| 2026-05-06 12:39 | 40.17547 | -73.16879 | 34054 ft | 418 kts | 229° |
| 2026-05-06 12:39 | 40.13172 | -73.21813 | 34059 ft | 418 kts | 229° |
| 2026-05-06 12:40 | 40.08768 | -73.26773 | 34040 ft | 418 kts | 229° |
| 2026-05-06 12:40 | 40.04350 | -73.31730 | 34058 ft | 419 kts | 229° |
| 2026-05-06 12:41 | 39.99930 | -73.36677 | 34080 ft | 419 kts | 229° |
| 2026-05-06 12:41 | 39.95510 | -73.41620 | 34066 ft | 418 kts | 229° |
| 2026-05-06 12:42 | 39.91080 | -73.46568 | 34051 ft | 419 kts | 229° |
| 2026-05-06 12:42 | 39.86647 | -73.51493 | 34055 ft | 419 kts | 228° |
| 2026-05-06 12:43 | 39.82214 | -73.56421 | 34058 ft | 419 kts | 229° |
| 2026-05-06 12:43 | 39.77791 | -73.61353 | 34066 ft | 419 kts | 229° |
| 2026-05-06 12:44 | 39.73360 | -73.66282 | 34064 ft | 419 kts | 229° |
| 2026-05-06 12:44 | 39.68931 | -73.71192 | 34076 ft | 418 kts | 229° |
| 2026-05-06 12:45 | 39.64537 | -73.76051 | 34079 ft | 417 kts | 229° |
| 2026-05-06 12:46 | 39.57893 | -73.83394 | 34079 ft | 416 kts | 229° |
| 2026-05-06 12:46 | 39.53507 | -73.88227 | 34078 ft | 416 kts | 229° |
| 2026-05-06 12:47 | 39.49100 | -73.93083 | 34079 ft | 416 kts | 229° |
| 2026-05-06 12:47 | 39.44691 | -73.97929 | 34071 ft | 416 kts | 229° |
| 2026-05-06 12:48 | 39.40279 | -74.02764 | 34094 ft | 415 kts | 230° |
| 2026-05-06 12:48 | 39.35883 | -74.07576 | 34070 ft | 413 kts | 229° |
| 2026-05-06 12:49 | 39.31490 | -74.12368 | 34073 ft | 413 kts | 229° |
| 2026-05-06 12:49 | 39.27096 | -74.17150 | 34073 ft | 413 kts | 229° |
| 2026-05-06 12:50 | 39.22703 | -74.21929 | 34066 ft | 413 kts | 229° |
| 2026-05-06 12:50 | 39.18307 | -74.26701 | 34075 ft | 413 kts | 229° |
| 2026-05-06 12:51 | 39.13904 | -74.31474 | 34043 ft | 414 kts | 229° |
| 2026-05-06 12:51 | 39.09481 | -74.36263 | 34050 ft | 416 kts | 229° |
| 2026-05-06 12:52 | 39.05053 | -74.41059 | 34073 ft | 416 kts | 229° |
| 2026-05-06 12:52 | 39.00623 | -74.45844 | 34079 ft | 416 kts | 229° |
| 2026-05-06 12:53 | 38.96191 | -74.50619 | 34064 ft | 416 kts | 229° |
| 2026-05-06 12:53 | 38.91789 | -74.55431 | 34063 ft | 414 kts | 231° |
| 2026-05-06 12:54 | 38.87547 | -74.60417 | 34069 ft | 413 kts | 232° |
| 2026-05-06 12:54 | 38.83367 | -74.65407 | 34080 ft | 413 kts | 232° |
| 2026-05-06 12:55 | 38.79127 | -74.70396 | 34048 ft | 414 kts | 231° |
| 2026-05-06 12:55 | 38.74859 | -74.75371 | 34059 ft | 416 kts | 230° |
| 2026-05-06 12:56 | 38.70408 | -74.80171 | 34056 ft | 420 kts | 228° |
| 2026-05-06 12:56 | 38.65816 | -74.84840 | 34065 ft | 421 kts | 227° |
| 2026-05-06 12:57 | 38.61240 | -74.89514 | 34073 ft | 421 kts | 228° |
| 2026-05-06 12:57 | 38.56704 | -74.94211 | 34060 ft | 421 kts | 228° |
| 2026-05-06 12:58 | 38.52160 | -74.98939 | 34063 ft | 421 kts | 229° |
| 2026-05-06 12:58 | 38.47730 | -75.03826 | 34076 ft | 419 kts | 230° |
| 2026-05-06 12:59 | 38.43224 | -75.08608 | 34083 ft | 424 kts | 227° |
| 2026-05-06 12:59 | 38.38467 | -75.13093 | 34056 ft | 426 kts | 225° |
| 2026-05-06 13:00 | 38.33646 | -75.17517 | 34057 ft | 428 kts | 225° |
| 2026-05-06 13:00 | 38.28852 | -75.22007 | 34066 ft | 428 kts | 226° |
| 2026-05-06 13:01 | 38.24084 | -75.26545 | 34072 ft | 428 kts | 226° |
| 2026-05-06 13:01 | 38.19306 | -75.31081 | 34060 ft | 429 kts | 226° |
| 2026-05-06 13:02 | 38.14509 | -75.35605 | 34051 ft | 430 kts | 226° |
| 2026-05-06 13:02 | 38.09694 | -75.40130 | 34057 ft | 431 kts | 226° |
| 2026-05-06 13:03 | 38.04870 | -75.44657 | 34067 ft | 432 kts | 225° |
| 2026-05-06 13:03 | 37.99874 | -75.48947 | 34090 ft | 435 kts | 223° |
| 2026-05-06 13:04 | 37.94752 | -75.53061 | 34081 ft | 437 kts | 222° |
| 2026-05-06 13:04 | 37.89653 | -75.57164 | 34080 ft | 437 kts | 222° |
| 2026-05-06 13:05 | 37.84548 | -75.61358 | 34077 ft | 438 kts | 223° |
| 2026-05-06 13:05 | 37.79444 | -75.65571 | 34083 ft | 438 kts | 223° |
| 2026-05-06 13:06 | 37.74324 | -75.69772 | 34070 ft | 439 kts | 223° |
| 2026-05-06 13:06 | 37.69715 | -75.74572 | 34100 ft | 420 kts | 238° |
| 2026-05-06 13:06 | 37.67933 | -75.77439 | 34109 ft | 409 kts | 245° |
| 2026-05-06 13:07 | 37.66528 | -75.80503 | 34135 ft | 400 kts | 252° |
| 2026-05-06 13:07 | 37.64160 | -75.86815 | 34136 ft | 396 kts | 253° |
| 2026-05-06 13:08 | 37.62002 | -75.93130 | 33294 ft | 385 kts | 260° |
| 2026-05-06 13:08 | 37.61463 | -75.96435 | 31547 ft | 388 kts | 269° |
| 2026-05-06 13:08 | 37.61424 | -75.99868 | 29839 ft | 394 kts | 276° |
| 2026-05-06 13:08 | 37.61832 | -76.03307 | 27953 ft | 401 kts | 283° |
| 2026-05-06 13:09 | 37.62265 | -76.05642 | 26731 ft | 405 kts | 283° |
| 2026-05-06 13:09 | 37.62884 | -76.09065 | 25021 ft | 410 kts | 282° |
| 2026-05-06 13:09 | 37.63517 | -76.12661 | 23491 ft | 427 kts | 281° |
| 2026-05-06 13:09 | 37.64149 | -76.16296 | 22753 ft | 419 kts | 281° |
| 2026-05-06 13:10 | 37.64766 | -76.19822 | 22490 ft | 402 kts | 281° |
| 2026-05-06 13:10 | 37.65361 | -76.23209 | 22221 ft | 390 kts | 281° |
| 2026-05-06 13:10 | 37.65943 | -76.26520 | 21844 ft | 384 kts | 281° |
| 2026-05-06 13:10 | 37.66521 | -76.29788 | 21200 ft | 381 kts | 281° |
| 2026-05-06 13:11 | 37.67098 | -76.33054 | 20581 ft | 379 kts | 281° |
| 2026-05-06 13:11 | 37.67666 | -76.36280 | 20003 ft | 376 kts | 280° |
| 2026-05-06 13:11 | 37.68234 | -76.39508 | 19429 ft | 374 kts | 280° |
| 2026-05-06 13:11 | 37.68794 | -76.42700 | 18896 ft | 373 kts | 280° |
| 2026-05-06 13:12 | 37.69357 | -76.45904 | 18367 ft | 372 kts | 280° |
| 2026-05-06 13:12 | 37.69912 | -76.49074 | 17796 ft | 369 kts | 280° |
| 2026-05-06 13:12 | 37.70464 | -76.52230 | 17287 ft | 366 kts | 279° |
| 2026-05-06 13:12 | 37.71008 | -76.55344 | 16724 ft | 362 kts | 279° |
| 2026-05-06 13:13 | 37.71545 | -76.58446 | 16187 ft | 359 kts | 279° |
| 2026-05-06 13:13 | 37.72072 | -76.61506 | 15636 ft | 356 kts | 279° |
| 2026-05-06 13:13 | 37.72597 | -76.64553 | 15076 ft | 353 kts | 278° |
| 2026-05-06 13:13 | 37.73119 | -76.67564 | 14482 ft | 351 kts | 278° |
| 2026-05-06 13:14 | 37.73441 | -76.70599 | 13888 ft | 345 kts | 269° |
| 2026-05-06 13:14 | 37.73545 | -76.73611 | 13241 ft | 343 kts | 269° |
| 2026-05-06 13:14 | 37.73651 | -76.76611 | 12644 ft | 339 kts | 269° |
| 2026-05-06 13:14 | 37.73753 | -76.79568 | 12058 ft | 336 kts | 269° |
| 2026-05-06 13:15 | 37.73856 | -76.82512 | 11466 ft | 333 kts | 269° |
| 2026-05-06 13:15 | 37.73957 | -76.85424 | 10897 ft | 331 kts | 269° |
| 2026-05-06 13:15 | 37.74056 | -76.88280 | 10720 ft | 317 kts | 268° |
| 2026-05-06 13:15 | 37.74154 | -76.90994 | 10598 ft | 303 kts | 268° |
| 2026-05-06 13:16 | 37.74246 | -76.93602 | 10482 ft | 291 kts | 268° |
| 2026-05-06 13:16 | 37.74331 | -76.96099 | 10361 ft | 280 kts | 268° |
| 2026-05-06 13:16 | 37.74413 | -76.98517 | 10208 ft | 271 kts | 268° |
| 2026-05-06 13:16 | 37.74491 | -77.00858 | 10098 ft | 265 kts | 268° |
| 2026-05-06 13:17 | 37.74566 | -77.03191 | 10040 ft | 266 kts | 268° |
| 2026-05-06 13:17 | 37.74639 | -77.05519 | 9895 ft | 267 kts | 268° |
| 2026-05-06 13:17 | 37.74713 | -77.07885 | 9426 ft | 269 kts | 268° |
| 2026-05-06 13:17 | 37.74789 | -77.10231 | 9110 ft | 265 kts | 268° |
| 2026-05-06 13:18 | 37.74863 | -77.12550 | 8754 ft | 264 kts | 268° |
| 2026-05-06 13:18 | 37.74935 | -77.14863 | 8417 ft | 262 kts | 268° |
| 2026-05-06 13:18 | 37.75005 | -77.17155 | 8090 ft | 261 kts | 268° |
| 2026-05-06 13:18 | 37.75072 | -77.19410 | 7761 ft | 259 kts | 268° |
| 2026-05-06 13:19 | 37.75142 | -77.21686 | 7407 ft | 257 kts | 268° |
| 2026-05-06 13:19 | 37.75077 | -77.23919 | 6875 ft | 249 kts | 256° |
| 2026-05-06 13:19 | 37.74564 | -77.25948 | 6310 ft | 244 kts | 243° |
| 2026-05-06 13:19 | 37.73645 | -77.27737 | 5695 ft | 241 kts | 233° |
| 2026-05-06 13:20 | 37.72614 | -77.29421 | 5129 ft | 238 kts | 233° |
| 2026-05-06 13:20 | 37.71619 | -77.31057 | 4620 ft | 233 kts | 232° |
| 2026-05-06 13:20 | 37.70637 | -77.32670 | 4046 ft | 229 kts | 232° |
| 2026-05-06 13:20 | 37.69708 | -77.34197 | 3786 ft | 214 kts | 233° |
| 2026-05-06 13:21 | 37.68842 | -77.35621 | 3646 ft | 191 kts | 233° |
| 2026-05-06 13:21 | 37.68088 | -77.36862 | 3547 ft | 161 kts | 233° |
| 2026-05-06 13:21 | 37.67463 | -77.37893 | 3513 ft | 144 kts | 233° |
| 2026-05-06 13:21 | 37.66865 | -77.38879 | 3422 ft | 130 kts | 232° |
| 2026-05-06 13:22 | 37.66385 | -77.39669 | 3363 ft | 103 kts | 232° |
| 2026-05-06 13:22 | 37.65922 | -77.40428 | 3325 ft | 113 kts | 233° |
| 2026-05-06 13:22 | 37.65441 | -77.41213 | 3272 ft | 113 kts | 232° |
| 2026-05-06 13:22 | 37.64803 | -77.41810 | 3214 ft | 119 kts | 211° |
| 2026-05-06 13:23 | 37.63953 | -77.41979 | 3098 ft | 134 kts | 189° |
| 2026-05-06 13:23 | 37.63051 | -77.41472 | 2828 ft | 149 kts | 160° |
| 2026-05-06 13:23 | 37.62222 | -77.40791 | 2639 ft | 139 kts | 167° |
| 2026-05-06 13:23 | 37.61411 | -77.40160 | 2456 ft | 136 kts | 166° |
| 2026-05-06 13:24 | 37.60619 | -77.39533 | 2281 ft | 132 kts | 166° |
| 2026-05-06 13:24 | 37.59851 | -77.38921 | 2096 ft | 130 kts | 165° |
| 2026-05-06 13:24 | 37.59084 | -77.38310 | 1911 ft | 131 kts | 162° |
| 2026-05-06 13:24 | 37.58316 | -77.37695 | 1753 ft | 130 kts | 162° |
| 2026-05-06 13:25 | 37.57557 | -77.37086 | 1575 ft | 129 kts | 161° |
| 2026-05-06 13:25 | 37.56791 | -77.36473 | 1392 ft | 131 kts | 159° |
| 2026-05-06 13:25 | 37.56018 | -77.35852 | 1219 ft | 132 kts | 159° |
| 2026-05-06 13:25 | 37.55244 | -77.35232 | 1046 ft | 133 kts | 157° |
| 2026-05-06 13:26 | 37.54471 | -77.34611 | 858 ft | 132 kts | 155° |
| 2026-05-06 13:26 | 37.53711 | -77.34001 | 690 ft | 129 kts | 154° |
| 2026-05-06 13:26 | 37.52955 | -77.33395 | 527 ft | 129 kts | 153° |
| 2026-05-06 13:26 | 37.52186 | -77.32785 | 362 ft | 130 kts | 152° |
| 2026-05-06 13:27 | 37.51431 | -77.32161 | 213 ft | 129 kts | 153° |
| 2026-05-06 13:27 | 37.50762 | -77.31636 | 169 ft | 90 kts | 147° |
| 2026-05-06 13:27 | 37.50359 | -77.31312 | 170 ft | 34 kts | 147° |
| 2026-05-06 13:27 | 37.50269 | -77.31337 | 166 ft | 15 kts | 236° |
| 2026-05-06 13:28 | 37.50210 | -77.31455 | 164 ft | 17 kts | 242° |
| 2026-05-06 13:28 | 37.50269 | -77.31547 | 167 ft | 14 kts | 328° |
| 2026-05-06 13:28 | 37.50355 | -77.31617 | 167 ft | 15 kts | 326° |
| 2026-05-06 13:28 | 37.50384 | -77.31730 | 168 ft | 14 kts | 274° |
| 2026-05-06 13:29 | 37.50392 | -77.31858 | 169 ft | 15 kts | 274° |
| 2026-05-06 13:29 | 37.50400 | -77.31992 | 169 ft | 16 kts | 274° |
| 2026-05-06 13:29 | 37.50408 | -77.32148 | 169 ft | 19 kts | 274° |
| 2026-05-06 13:29 | 37.50419 | -77.32313 | 170 ft | 19 kts | 274° |
| 2026-05-06 13:30 | 37.50429 | -77.32490 | 168 ft | 22 kts | 273° |
| 2026-05-06 13:30 | 37.50440 | -77.32690 | 167 ft | 23 kts | 277° |
| 2026-05-06 13:30 | 37.50463 | -77.32881 | 171 ft | 21 kts | 285° |
| 2026-05-06 13:30 | 37.50478 | -77.32958 | 171 ft | 2 kts | 283° |
| 2026-05-06 13:31 | 37.50537 | -77.32999 | 172 ft | 13 kts | 14° |
| 2026-05-06 13:31 | 37.50627 | -77.32973 | 172 ft | 13 kts | 13° |
| 2026-05-06 13:31 | 37.50715 | -77.32962 | 172 ft | 12 kts | 336° |
| 2026-05-06 13:31 | 37.50789 | -77.33018 | 171 ft | 13 kts | 327° |
| 2026-05-06 13:32 | 37.50855 | -77.33061 | 171 ft | 0 kts | 333° |